Time;durP1;ratioP1;P1;durP2;ratioP2;P2;SDS_P1;SDS_P2;PMS_P1;PMS_P2;Temp;Humidity;BMP_temperature;BMP_pressure;BME280_temperature;BME280_humidity;BME280_pressure;Samples;Min_cycle;Max_cycle;Signal;HPM_P1;HPM_P2
2023/06/04 00:00:12;;;;;;;10.82;3.92;;;;;;;;;;5000041;28;20215;-58
2023/06/04 00:02:38;;;;;;;8.93;4.38;;;;;;;;;;4998760;28;20379;-58
2023/06/04 00:05:04;;;;;;;9.85;5.07;;;;;;;;;;5000005;28;20049;-58
2023/06/04 00:07:30;;;;;;;13.70;5.97;;;;;;;;;;4999538;28;20038;-58
2023/06/04 00:09:56;;;;;;;9.60;4.60;;;;;;;;;;4999800;28;20033;-58
2023/06/04 00:12:22;;;;;;;10.23;4.70;;;;;;;;;;4999997;28;20038;-58
2023/06/04 00:14:49;;;;;;;17.80;5.53;;;;;;;;;;4999522;28;20057;-58
2023/06/04 00:17:15;;;;;;;12.40;6.00;;;;;;;;;;4999500;28;20032;-58
2023/06/04 00:19:41;;;;;;;10.32;4.93;;;;;;;;;;4999910;28;20021;-58
2023/06/04 00:22:08;;;;;;;9.18;4.22;;;;;;;;;;4999250;28;20030;-58
2023/06/04 00:24:34;;;;;;;8.38;3.83;;;;;;;;;;5000009;28;20121;-58
2023/06/04 00:27:00;;;;;;;10.93;4.50;;;;;;;;;;4999537;28;20025;-58
2023/06/04 00:29:27;;;;;;;9.35;3.45;;;;;;;;;;4999381;28;20481;-58
2023/06/04 00:31:53;;;;;;;8.85;3.45;;;;;;;;;;4999933;28;20428;-58
2023/06/04 00:34:19;;;;;;;6.65;2.97;;;;;;;;;;4999331;28;20037;-58
2023/06/04 00:36:45;;;;;;;6.88;3.30;;;;;;;;;;4999757;28;20037;-58
2023/06/04 00:39:11;;;;;;;10.65;3.25;;;;;;;;;;4999256;28;20041;-58
2023/06/04 00:41:37;;;;;;;12.15;3.47;;;;;;;;;;4999541;28;20029;-58
2023/06/04 00:44:06;;;;;;;8.95;2.80;;;;;;;;;;4999031;28;20068;-58
2023/06/04 00:46:32;;;;;;;7.20;3.22;;;;;;;;;;4998411;28;20037;-58
2023/06/04 00:48:59;;;;;;;8.38;3.13;;;;;;;;;;4999580;28;20033;-58
2023/06/04 00:51:25;;;;;;;8.43;2.90;;;;;;;;;;4998352;28;20133;-58
2023/06/04 00:53:52;;;;;;;9.80;3.15;;;;;;;;;;4999731;28;20034;-58
2023/06/04 00:56:18;;;;;;;8.43;2.88;;;;;;;;;;4999823;28;20115;-58
2023/06/04 00:58:45;;;;;;;6.90;3.20;;;;;;;;;;4999731;28;20112;-58
2023/06/04 01:01:15;;;;;;;7.80;2.78;;;;;;;;;;4998939;28;20152;-58
2023/06/04 01:03:43;;;;;;;7.85;2.70;;;;;;;;;;4999097;28;20087;-58
2023/06/04 01:06:12;;;;;;;8.32;3.05;;;;;;;;;;4997441;28;20050;-58
2023/06/04 01:08:42;;;;;;;7.18;2.67;;;;;;;;;;4999389;28;20045;-57
2023/06/04 01:11:08;;;;;;;8.15;2.65;;;;;;;;;;4999533;28;21073;-58
2023/06/04 01:13:35;;;;;;;5.97;2.50;;;;;;;;;;4998726;28;21783;-58
2023/06/04 01:16:01;;;;;;;8.82;3.00;;;;;;;;;;4997546;28;20124;-58
2023/06/04 01:18:28;;;;;;;6.85;2.85;;;;;;;;;;4996456;28;20029;-58
2023/06/04 01:21:09;;;;;;;7.32;3.05;;;;;;;;;;4997846;28;20080;-58
2023/06/04 01:23:38;;;;;;;8.27;2.80;;;;;;;;;;4997108;28;20034;-58
2023/06/04 01:26:05;;;;;;;6.15;2.58;;;;;;;;;;4997751;28;20026;-58
2023/06/04 01:28:33;;;;;;;6.75;2.53;;;;;;;;;;4998598;28;20123;-58
2023/06/04 01:31:01;;;;;;;7.93;2.40;;;;;;;;;;4998290;28;20040;-58
2023/06/04 01:33:27;;;;;;;9.23;3.05;;;;;;;;;;4998092;28;20037;-58
2023/06/04 01:35:54;;;;;;;8.25;3.08;;;;;;;;;;4998367;28;20826;-58
2023/06/04 01:38:20;;;;;;;8.32;2.90;;;;;;;;;;4999105;28;20092;-58
2023/06/04 01:40:47;;;;;;;7.30;2.88;;;;;;;;;;4998731;28;20468;-58
2023/06/04 01:43:13;;;;;;;8.93;2.50;;;;;;;;;;4998545;28;20033;-58
2023/06/04 01:45:39;;;;;;;5.57;2.55;;;;;;;;;;4998470;28;20692;-58
2023/06/04 01:48:06;;;;;;;20.65;3.45;;;;;;;;;;4998543;28;20087;-58
2023/06/04 01:50:32;;;;;;;7.88;2.70;;;;;;;;;;4998829;28;20041;-58
2023/06/04 01:52:58;;;;;;;7.22;2.30;;;;;;;;;;4997618;28;20030;-58
2023/06/04 01:55:25;;;;;;;7.55;2.58;;;;;;;;;;4997135;28;20030;-58
2023/06/04 01:57:51;;;;;;;5.38;2.65;;;;;;;;;;4997654;28;20049;-58
2023/06/04 02:00:18;;;;;;;6.10;2.75;;;;;;;;;;4997664;28;20025;-58
2023/06/04 02:02:48;;;;;;;6.60;2.72;;;;;;;;;;4997777;28;20073;-58
2023/06/04 02:05:14;;;;;;;6.13;2.40;;;;;;;;;;4997253;28;20077;-57
2023/06/04 02:07:41;;;;;;;7.25;3.15;;;;;;;;;;4997426;28;20041;-58
2023/06/04 02:10:08;;;;;;;9.02;2.80;;;;;;;;;;4997819;28;20026;-58
2023/06/04 02:12:36;;;;;;;8.57;2.47;;;;;;;;;;4998192;28;20042;-57
2023/06/04 02:15:02;;;;;;;5.50;2.30;;;;;;;;;;4997695;28;21795;-58
2023/06/04 02:17:32;;;;;;;6.95;2.88;;;;;;;;;;4997379;28;20068;-58
2023/06/04 02:19:58;;;;;;;5.82;2.20;;;;;;;;;;4998015;28;20034;-57
2023/06/04 02:22:24;;;;;;;6.40;2.28;;;;;;;;;;4997115;28;20059;-57
2023/06/04 02:24:51;;;;;;;7.07;2.63;;;;;;;;;;4996734;28;20044;-57
2023/06/04 02:27:17;;;;;;;7.32;2.40;;;;;;;;;;4998306;28;20061;-58
2023/06/04 02:29:43;;;;;;;7.78;2.20;;;;;;;;;;4997547;28;20116;-58
2023/06/04 02:32:09;;;;;;;8.10;2.03;;;;;;;;;;4998059;28;20037;-57
2023/06/04 02:34:36;;;;;;;4.70;2.10;;;;;;;;;;4997279;28;21021;-58
2023/06/04 02:37:02;;;;;;;4.50;1.90;;;;;;;;;;4997760;28;20420;-58
2023/06/04 02:39:28;;;;;;;5.55;2.42;;;;;;;;;;4996827;28;20732;-58
2023/06/04 02:41:54;;;;;;;5.25;1.92;;;;;;;;;;4997700;28;20313;-58
2023/06/04 02:44:21;;;;;;;6.60;2.40;;;;;;;;;;4996853;28;20575;-58
2023/06/04 02:46:47;;;;;;;4.90;2.03;;;;;;;;;;4997412;28;20034;-58
2023/06/04 02:49:13;;;;;;;4.75;1.88;;;;;;;;;;4997147;28;20041;-58
2023/06/04 02:51:42;;;;;;;4.45;1.58;;;;;;;;;;4996679;28;20038;-57
2023/06/04 02:54:09;;;;;;;3.72;1.50;;;;;;;;;;4996794;28;20052;-58
2023/06/04 02:56:36;;;;;;;3.92;1.52;;;;;;;;;;4997722;28;20083;-58
2023/06/04 02:59:03;;;;;;;5.22;1.83;;;;;;;;;;4997148;28;20032;-58
2023/06/04 03:01:29;;;;;;;3.85;1.80;;;;;;;;;;4997002;28;20721;-58
2023/06/04 03:03:57;;;;;;;5.97;2.10;;;;;;;;;;4997275;28;20034;-58
2023/06/04 03:06:23;;;;;;;5.50;2.40;;;;;;;;;;4997438;28;20065;-58
2023/06/04 03:08:50;;;;;;;5.57;2.30;;;;;;;;;;4996919;28;20030;-58
2023/06/04 03:11:17;;;;;;;6.65;2.40;;;;;;;;;;5002020;28;20724;-58
2023/06/04 03:13:43;;;;;;;3.80;1.75;;;;;;;;;;5000672;28;20037;-58
2023/06/04 03:16:09;;;;;;;5.35;1.60;;;;;;;;;;5001320;28;21802;-58
2023/06/04 03:18:43;;;;;;;4.00;1.80;;;;;;;;;;4999907;28;20439;-58
2023/06/04 03:21:11;;;;;;;5.70;2.03;;;;;;;;;;4999921;28;20030;-57
2023/06/04 03:23:37;;;;;;;6.47;2.00;;;;;;;;;;4999514;28;20044;-58
2023/06/04 03:26:03;;;;;;;4.63;1.70;;;;;;;;;;5000449;28;20049;-58
2023/06/04 03:28:31;;;;;;;4.47;2.05;;;;;;;;;;4999995;28;20476;-58
2023/06/04 03:30:57;;;;;;;4.75;2.03;;;;;;;;;;4998782;28;20700;-58
2023/06/04 03:33:23;;;;;;;5.20;2.40;;;;;;;;;;5001123;28;21051;-57
2023/06/04 03:35:49;;;;;;;7.47;1.85;;;;;;;;;;5000716;28;20049;-57
2023/06/04 03:38:15;;;;;;;4.32;2.05;;;;;;;;;;5000623;28;20034;-57
2023/06/04 03:40:41;;;;;;;5.30;2.08;;;;;;;;;;5000444;28;21004;-58
2023/06/04 03:43:07;;;;;;;4.43;1.90;;;;;;;;;;5001090;28;21815;-58
2023/06/04 03:45:33;;;;;;;5.65;1.80;;;;;;;;;;5001108;28;20037;-58
2023/06/04 03:48:00;;;;;;;6.20;2.00;;;;;;;;;;5000612;28;20524;-57
2023/06/04 03:50:26;;;;;;;3.30;2.00;;;;;;;;;;5000467;28;20042;-58
2023/06/04 03:52:52;;;;;;;4.43;2.28;;;;;;;;;;5000492;28;21763;-57
2023/06/04 03:55:18;;;;;;;4.72;2.83;;;;;;;;;;5000549;28;21029;-58
2023/06/04 03:57:44;;;;;;;5.15;2.10;;;;;;;;;;4999956;28;20049;-58
2023/06/04 04:00:12;;;;;;;4.90;2.05;;;;;;;;;;5000670;28;20029;-58
2023/06/04 04:02:39;;;;;;;3.47;1.90;;;;;;;;;;4999486;28;20203;-58
2023/06/04 04:05:05;;;;;;;4.72;2.00;;;;;;;;;;5000089;28;20041;-58
2023/06/04 04:07:31;;;;;;;4.20;1.55;;;;;;;;;;4999933;28;20120;-58
2023/06/04 04:09:57;;;;;;;3.22;1.48;;;;;;;;;;5000206;28;20461;-57
2023/06/04 04:12:23;;;;;;;5.05;2.10;;;;;;;;;;5000515;28;20034;-58
2023/06/04 04:14:49;;;;;;;4.05;1.80;;;;;;;;;;5000668;28;20026;-58
2023/06/04 04:17:15;;;;;;;4.22;1.90;;;;;;;;;;5000305;28;20034;-58
2023/06/04 04:19:41;;;;;;;4.82;1.63;;;;;;;;;;5000464;28;20037;-57
2023/06/04 04:22:08;;;;;;;4.00;1.45;;;;;;;;;;4999205;28;20037;-58
2023/06/04 04:24:39;;;;;;;4.88;1.90;;;;;;;;;;4999580;28;20072;-58
2023/06/04 04:27:05;;;;;;;4.40;1.92;;;;;;;;;;4999865;28;20084;-57
2023/06/04 04:29:34;;;;;;;5.07;2.30;;;;;;;;;;5000344;28;20033;-58
2023/06/04 04:32:11;;;;;;;5.20;2.50;;;;;;;;;;5000038;28;20040;-57
2023/06/04 04:34:38;;;;;;;8.45;2.88;;;;;;;;;;4999629;28;20116;-57
2023/06/04 04:37:08;;;;;;;6.40;2.95;;;;;;;;;;4998023;28;20021;-57
2023/06/04 04:39:34;;;;;;;6.15;3.13;;;;;;;;;;4998928;28;20524;-57
2023/06/04 04:42:00;;;;;;;7.93;3.05;;;;;;;;;;4998093;28;20156;-58
2023/06/04 04:44:26;;;;;;;7.60;2.72;;;;;;;;;;4998399;28;20135;-58
2023/06/04 04:46:52;;;;;;;6.30;2.97;;;;;;;;;;4998858;28;20087;-58
2023/06/04 04:49:18;;;;;;;5.03;2.72;;;;;;;;;;4998001;28;20073;-58
2023/06/04 04:51:44;;;;;;;7.53;3.10;;;;;;;;;;4998739;28;20042;-57
2023/06/04 04:54:10;;;;;;;5.35;3.00;;;;;;;;;;4997738;28;20065;-58
2023/06/04 04:56:37;;;;;;;7.22;2.70;;;;;;;;;;4999042;28;20034;-58
2023/06/04 04:59:03;;;;;;;6.10;3.28;;;;;;;;;;4999533;28;20044;-58
2023/06/04 05:01:29;;;;;;;7.15;3.08;;;;;;;;;;4998993;28;21116;-58
2023/06/04 05:03:55;;;;;;;5.95;3.15;;;;;;;;;;4997534;28;20089;-58
2023/06/04 05:06:21;;;;;;;6.07;3.08;;;;;;;;;;4995771;28;20050;-57
2023/06/04 05:08:49;;;;;;;7.25;3.20;;;;;;;;;;4996726;28;20033;-58
2023/06/04 05:11:15;;;;;;;6.65;2.72;;;;;;;;;;4997646;28;20560;-58
2023/06/04 05:13:44;;;;;;;6.35;3.00;;;;;;;;;;4995753;28;20047;-58
2023/06/04 05:16:11;;;;;;;7.47;2.92;;;;;;;;;;4997258;28;20056;-58
2023/06/04 05:18:41;;;;;;;5.47;2.60;;;;;;;;;;4996145;28;20074;-58
2023/06/04 05:21:07;;;;;;;8.90;3.65;;;;;;;;;;4997276;28;20858;-58
2023/06/04 05:23:37;;;;;;;6.78;3.20;;;;;;;;;;4997131;28;20026;-58
2023/06/04 05:26:04;;;;;;;7.13;3.05;;;;;;;;;;4994904;28;20045;-58
2023/06/04 05:28:32;;;;;;;6.95;3.03;;;;;;;;;;4996992;28;20030;-58
2023/06/04 05:30:59;;;;;;;7.28;3.20;;;;;;;;;;4994842;28;20059;-58
2023/06/04 05:33:30;;;;;;;7.35;3.35;;;;;;;;;;4997108;28;20040;-58
2023/06/04 05:35:59;;;;;;;6.80;3.13;;;;;;;;;;4996034;28;20041;-58
2023/06/04 05:38:25;;;;;;;8.07;3.17;;;;;;;;;;4996900;28;20044;-58
2023/06/04 05:40:52;;;;;;;8.02;3.47;;;;;;;;;;4998170;28;20037;-58
2023/06/04 05:43:18;;;;;;;6.15;3.38;;;;;;;;;;4998662;28;20396;-58
2023/06/04 05:45:45;;;;;;;9.48;3.90;;;;;;;;;;4995855;28;20062;-58
2023/06/04 05:48:11;;;;;;;7.72;4.18;;;;;;;;;;4997152;28;20034;-58
2023/06/04 05:50:37;;;;;;;15.88;5.47;;;;;;;;;;4997354;28;20385;-58
2023/06/04 05:53:03;;;;;;;10.55;4.13;;;;;;;;;;4997522;28;20037;-58
2023/06/04 05:55:29;;;;;;;10.55;3.50;;;;;;;;;;4997648;28;20029;-58
2023/06/04 05:57:56;;;;;;;6.93;3.10;;;;;;;;;;4998242;28;20113;-58
2023/06/04 06:00:22;;;;;;;10.93;3.40;;;;;;;;;;4998102;28;20030;-58
2023/06/04 06:02:49;;;;;;;12.25;4.05;;;;;;;;;;4997179;28;20045;-58
2023/06/04 06:05:16;;;;;;;6.25;2.63;;;;;;;;;;4994814;28;20068;-58
2023/06/04 06:07:43;;;;;;;11.30;3.53;;;;;;;;;;4997105;28;20045;-58
2023/06/04 06:10:09;;;;;;;9.90;3.00;;;;;;;;;;4996950;28;20045;-58
2023/06/04 06:12:35;;;;;;;11.57;3.42;;;;;;;;;;4998212;28;20469;-58
2023/06/04 06:15:01;;;;;;;10.05;3.58;;;;;;;;;;4997569;28;20038;-58
2023/06/04 06:17:28;;;;;;;14.32;3.38;;;;;;;;;;4998243;28;20167;-58
2023/06/04 06:19:55;;;;;;;10.60;3.53;;;;;;;;;;4996785;28;20396;-58
2023/06/04 06:22:21;;;;;;;9.38;3.30;;;;;;;;;;4996547;28;20033;-58
2023/06/04 06:24:51;;;;;;;9.48;3.00;;;;;;;;;;4998345;28;20030;-59
2023/06/04 06:27:17;;;;;;;7.88;3.20;;;;;;;;;;4996149;28;20038;-58
2023/06/04 06:29:43;;;;;;;9.88;2.75;;;;;;;;;;4997675;28;20057;-59
2023/06/04 06:32:10;;;;;;;8.85;2.95;;;;;;;;;;4996778;28;20030;-58
2023/06/04 06:34:37;;;;;;;9.25;3.28;;;;;;;;;;4996855;28;20037;-58
2023/06/04 06:37:04;;;;;;;7.43;2.50;;;;;;;;;;4997348;28;20115;-59
2023/06/04 06:39:30;;;;;;;11.70;3.10;;;;;;;;;;4997493;28;20033;-58
2023/06/04 06:41:56;;;;;;;6.43;2.42;;;;;;;;;;4996048;28;20045;-58
2023/06/04 06:44:22;;;;;;;9.60;2.67;;;;;;;;;;4995136;28;20081;-58
2023/06/04 06:46:48;;;;;;;8.35;2.40;;;;;;;;;;4997396;28;20126;-58
2023/06/04 06:49:14;;;;;;;7.78;2.40;;;;;;;;;;4997363;28;20378;-59
2023/06/04 06:51:41;;;;;;;10.27;2.40;;;;;;;;;;4996602;28;20236;-59
2023/06/04 06:54:09;;;;;;;9.55;2.75;;;;;;;;;;4994621;28;20409;-59
2023/06/04 06:56:35;;;;;;;9.75;2.58;;;;;;;;;;4997781;28;20088;-58
2023/06/04 06:59:01;;;;;;;6.65;2.72;;;;;;;;;;4997340;28;20038;-58
2023/06/04 07:01:27;;;;;;;10.05;2.28;;;;;;;;;;4997635;28;20045;-58
2023/06/04 07:03:54;;;;;;;5.60;2.03;;;;;;;;;;4997805;28;20061;-58
2023/06/04 07:06:20;;;;;;;7.50;1.83;;;;;;;;;;4996685;28;20529;-58
2023/06/04 07:08:48;;;;;;;9.57;2.45;;;;;;;;;;4996904;28;20148;-59
2023/06/04 07:11:14;;;;;;;6.55;2.20;;;;;;;;;;4997555;28;20037;-58
2023/06/04 07:13:40;;;;;;;7.47;2.63;;;;;;;;;;4996794;28;20164;-59
2023/06/04 07:16:06;;;;;;;8.85;2.20;;;;;;;;;;4995383;28;20108;-59
2023/06/04 07:18:33;;;;;;;9.32;2.50;;;;;;;;;;4997504;28;20428;-59
2023/06/04 07:20:59;;;;;;;6.55;1.88;;;;;;;;;;4997350;28;20096;-59
2023/06/04 07:23:25;;;;;;;7.75;2.63;;;;;;;;;;4997417;28;21758;-58
2023/06/04 07:25:51;;;;;;;9.82;2.53;;;;;;;;;;4997329;28;20033;-58
2023/06/04 07:28:17;;;;;;;5.85;2.20;;;;;;;;;;4994784;28;20400;-58
2023/06/04 07:30:45;;;;;;;9.85;2.72;;;;;;;;;;4995509;28;20065;-58
2023/06/04 07:33:11;;;;;;;8.40;2.28;;;;;;;;;;4994303;28;20103;-58
2023/06/04 07:35:37;;;;;;;5.68;2.00;;;;;;;;;;4993972;28;20029;-59
2023/06/04 07:38:03;;;;;;;7.15;1.85;;;;;;;;;;4995104;28;20038;-58
2023/06/04 07:40:29;;;;;;;8.85;2.47;;;;;;;;;;4994168;28;20034;-59
2023/06/04 07:42:56;;;;;;;6.63;1.88;;;;;;;;;;4996209;28;20124;-59
2023/06/04 07:45:22;;;;;;;5.32;1.85;;;;;;;;;;4994000;28;20797;-58
2023/06/04 07:47:48;;;;;;;6.05;2.53;;;;;;;;;;4994755;28;20092;-58
2023/06/04 07:50:14;;;;;;;8.55;1.83;;;;;;;;;;4995457;28;20049;-59
2023/06/04 07:52:40;;;;;;;9.35;2.20;;;;;;;;;;4995440;28;20996;-58
2023/06/04 07:55:08;;;;;;;8.07;2.42;;;;;;;;;;4995625;28;20022;-59
2023/06/04 07:57:34;;;;;;;8.65;2.28;;;;;;;;;;4998642;28;20025;-58
2023/06/04 08:00:03;;;;;;;4.40;1.88;;;;;;;;;;4994191;28;20824;-58
2023/06/04 08:02:30;;;;;;;7.10;2.50;;;;;;;;;;4996314;28;20033;-59
2023/06/04 08:04:56;;;;;;;8.70;2.40;;;;;;;;;;4998842;28;20038;-58
2023/06/04 08:07:22;;;;;;;7.18;2.25;;;;;;;;;;4998968;28;20823;-58
2023/06/04 08:09:49;;;;;;;6.93;1.90;;;;;;;;;;4998063;28;20041;-58
2023/06/04 08:12:16;;;;;;;4.93;1.92;;;;;;;;;;4999453;28;21169;-59
2023/06/04 08:14:42;;;;;;;9.65;1.95;;;;;;;;;;4999367;28;20033;-58
2023/06/04 08:17:08;;;;;;;6.32;1.67;;;;;;;;;;4998447;28;20481;-58
2023/06/04 08:19:34;;;;;;;7.28;1.95;;;;;;;;;;4998708;28;20022;-58
2023/06/04 08:22:00;;;;;;;7.30;2.10;;;;;;;;;;4998436;28;20413;-58
2023/06/04 08:24:26;;;;;;;7.75;2.47;;;;;;;;;;4998769;28;20030;-58
2023/06/04 08:26:52;;;;;;;5.35;1.50;;;;;;;;;;4998623;28;20696;-58
2023/06/04 08:29:18;;;;;;;6.80;1.67;;;;;;;;;;4999171;28;20711;-59
2023/06/04 08:31:44;;;;;;;10.32;2.10;;;;;;;;;;4998148;28;20029;-58
2023/06/04 08:34:10;;;;;;;6.07;2.30;;;;;;;;;;4998823;28;20149;-59
2023/06/04 08:36:36;;;;;;;5.47;1.80;;;;;;;;;;4998982;28;20038;-58
2023/06/04 08:39:03;;;;;;;4.75;1.60;;;;;;;;;;4998730;28;20029;-58
2023/06/04 08:41:30;;;;;;;5.68;1.60;;;;;;;;;;4999389;28;20037;-58
2023/06/04 08:43:57;;;;;;;6.60;2.05;;;;;;;;;;4998624;28;20030;-58
2023/06/04 08:46:24;;;;;;;6.93;1.85;;;;;;;;;;4999564;28;20034;-59
2023/06/04 08:48:50;;;;;;;7.30;1.95;;;;;;;;;;4999000;28;20038;-58
2023/06/04 08:51:17;;;;;;;8.43;2.05;;;;;;;;;;4999372;28;20053;-58
2023/06/04 08:53:47;;;;;;;5.30;1.88;;;;;;;;;;4998969;28;20049;-58
2023/06/04 08:56:13;;;;;;;8.25;2.00;;;;;;;;;;4998777;28;20117;-59
2023/06/04 08:58:40;;;;;;;4.47;1.67;;;;;;;;;;4998876;28;20030;-59
2023/06/04 09:01:07;;;;;;;6.15;1.60;;;;;;;;;;4997198;28;20060;-58
2023/06/04 09:03:35;;;;;;;5.55;1.60;;;;;;;;;;4993434;28;20072;-59
2023/06/04 09:06:02;;;;;;;5.50;1.55;;;;;;;;;;4998403;28;20038;-58
2023/06/04 09:08:32;;;;;;;4.78;1.67;;;;;;;;;;4997725;28;20033;-59
2023/06/04 09:10:58;;;;;;;5.78;1.40;;;;;;;;;;4997880;28;20033;-59
2023/06/04 09:13:31;;;;;;;6.60;1.95;;;;;;;;;;4996752;28;20045;-59
2023/06/04 09:16:00;;;;;;;6.78;1.42;;;;;;;;;;4996925;28;20026;-59
2023/06/04 09:18:27;;;;;;;3.47;1.40;;;;;;;;;;4997755;28;20140;-59
2023/06/04 09:21:02;;;;;;;5.45;1.70;;;;;;;;;;4998150;28;20030;-59
2023/06/04 09:23:28;;;;;;;6.97;1.80;;;;;;;;;;4998048;28;20065;-58
2023/06/04 09:25:54;;;;;;;4.55;1.48;;;;;;;;;;4997772;28;20029;-59
2023/06/04 09:28:21;;;;;;;3.80;1.42;;;;;;;;;;4996209;28;20057;-59
2023/06/04 09:30:54;;;;;;;5.32;1.20;;;;;;;;;;4997379;28;21982;-59
2023/06/04 09:33:20;;;;;;;4.30;1.30;;;;;;;;;;4994690;28;20037;-58
2023/06/04 09:35:59;;;;;;;4.68;1.48;;;;;;;;;;4993996;28;21597;-59
2023/06/04 09:38:38;;;;;;;8.52;1.70;;;;;;;;;;4994563;28;20033;-59
2023/06/04 09:41:04;;;;;;;4.55;1.40;;;;;;;;;;4996760;28;20030;-59
2023/06/04 09:43:34;;;;;;;3.85;1.58;;;;;;;;;;4992651;28;20045;-59
2023/06/04 09:46:10;;;;;;;5.00;1.65;;;;;;;;;;4995684;28;20029;-59
2023/06/04 09:48:36;;;;;;;4.97;1.52;;;;;;;;;;4996697;28;20037;-59
2023/06/04 09:51:13;;;;;;;4.75;1.50;;;;;;;;;;4996130;28;21718;-59
2023/06/04 09:53:39;;;;;;;3.92;1.15;;;;;;;;;;4997880;28;20037;-59
2023/06/04 09:56:06;;;;;;;5.38;1.60;;;;;;;;;;4995587;28;20026;-59
2023/06/04 09:58:33;;;;;;;5.85;1.75;;;;;;;;;;4997234;28;20413;-59
2023/06/04 10:01:00;;;;;;;6.78;1.52;;;;;;;;;;4997841;28;20822;-59
2023/06/04 10:03:30;;;;;;;5.65;1.42;;;;;;;;;;4997149;28;20049;-59
2023/06/04 10:05:57;;;;;;;4.20;1.50;;;;;;;;;;4996242;28;20058;-59
2023/06/04 10:08:23;;;;;;;4.90;1.67;;;;;;;;;;4990494;28;20065;-59
2023/06/04 10:10:55;;;;;;;3.85;1.10;;;;;;;;;;4989368;28;20045;-59
2023/06/04 10:13:23;;;;;;;6.85;1.52;;;;;;;;;;4990862;28;20088;-59
2023/06/04 10:15:50;;;;;;;4.57;1.45;;;;;;;;;;4992611;28;20030;-59
2023/06/04 10:18:16;;;;;;;4.32;1.40;;;;;;;;;;4991030;28;20591;-59
2023/06/04 10:20:42;;;;;;;5.03;1.15;;;;;;;;;;4993317;28;20972;-59
2023/06/04 10:23:08;;;;;;;4.18;1.60;;;;;;;;;;4994518;28;20038;-59
2023/06/04 10:25:38;;;;;;;4.22;1.40;;;;;;;;;;4996593;28;20055;-59
2023/06/04 10:28:04;;;;;;;5.55;1.30;;;;;;;;;;4997565;28;20029;-59
2023/06/04 10:30:31;;;;;;;4.15;1.20;;;;;;;;;;4996843;28;20030;-59
2023/06/04 10:32:58;;;;;;;4.65;1.20;;;;;;;;;;4996880;28;20045;-59
2023/06/04 10:35:31;;;;;;;7.35;1.60;;;;;;;;;;4997418;28;20053;-59
2023/06/04 10:38:10;;;;;;;4.25;1.42;;;;;;;;;;4997197;28;20133;-59
2023/06/04 10:40:37;;;;;;;4.47;1.30;;;;;;;;;;4997129;28;20116;-59
2023/06/04 10:43:06;;;;;;;5.72;1.70;;;;;;;;;;4997303;28;20038;-59
2023/06/04 10:45:32;;;;;;;5.65;1.40;;;;;;;;;;4996495;28;20037;-59
2023/06/04 10:48:06;;;;;;;7.35;1.58;;;;;;;;;;4996920;28;20069;-59
2023/06/04 10:50:32;;;;;;;;;;;;;;;;;;4997395;28;20037;-59
2023/06/04 10:52:58;;;;;;;5.05;1.73;;;;;;;;;;4997348;28;19921;-59
2023/06/04 10:55:25;;;;;;;5.35;1.70;;;;;;;;;;4997323;28;20080;-59
2023/06/04 10:58:02;;;;;;;6.72;1.67;;;;;;;;;;4997543;28;20034;-59
2023/06/04 11:00:38;;;;;;;3.83;1.52;;;;;;;;;;4997461;28;20091;-59
2023/06/04 11:03:06;;;;;;;5.03;1.92;;;;;;;;;;4995872;28;20046;-59
2023/06/04 11:05:59;;;;;;;4.60;1.58;;;;;;;;;;4996848;28;20072;-59
2023/06/04 11:08:30;;;;;;;3.80;1.30;;;;;;;;;;4996404;28;20065;-59
2023/06/04 11:10:56;;;;;;;5.50;1.83;;;;;;;;;;5004066;28;20033;-59
2023/06/04 11:13:25;;;;;;;4.75;1.90;;;;;;;;;;4997223;28;20034;-59
2023/06/04 11:15:52;;;;;;;4.38;1.55;;;;;;;;;;4997151;28;20061;-59
2023/06/04 11:18:19;;;;;;;3.85;1.25;;;;;;;;;;4997539;28;20033;-59
2023/06/04 11:20:45;;;;;;;4.53;1.63;;;;;;;;;;4994916;28;20058;-59
2023/06/04 11:23:12;;;;;;;4.70;1.50;;;;;;;;;;4996900;28;20071;-59
2023/06/04 11:25:39;;;;;;;4.70;1.63;;;;;;;;;;4996367;28;20111;-59
2023/06/04 11:28:05;;;;;;;5.32;1.80;;;;;;;;;;4997175;28;20080;-59
2023/06/04 11:30:31;;;;;;;4.85;1.70;;;;;;;;;;4997880;28;20441;-59
2023/06/04 11:33:04;;;;;;;5.72;1.60;;;;;;;;;;5000538;28;20034;-59
2023/06/04 11:35:30;;;;;;;4.95;1.55;;;;;;;;;;5000663;28;20056;-59
2023/06/04 11:37:58;;;;;;;4.47;1.80;;;;;;;;;;4999948;28;20029;-59
2023/06/04 11:40:26;;;;;;;5.95;1.90;;;;;;;;;;4997780;28;20056;-59
2023/06/04 11:42:52;;;;;;;5.97;1.63;;;;;;;;;;4998434;28;20963;-59
2023/06/04 11:45:20;;;;;;;5.30;1.70;;;;;;;;;;4999758;28;20336;-59
2023/06/04 11:47:47;;;;;;;4.20;1.80;;;;;;;;;;4999019;28;20033;-59
2023/06/04 11:50:14;;;;;;;4.72;1.42;;;;;;;;;;4998464;28;20026;-59
2023/06/04 11:52:40;;;;;;;5.05;1.90;;;;;;;;;;5000207;28;20033;-59
2023/06/04 11:55:10;;;;;;;7.63;2.25;;;;;;;;;;5000664;28;20512;-59
2023/06/04 11:57:37;;;;;;;3.90;1.73;;;;;;;;;;5000276;28;20080;-59
2023/06/04 12:00:08;;;;;;;6.95;2.50;;;;;;;;;;5000503;28;20144;-59
2023/06/04 12:02:35;;;;;;;7.70;2.15;;;;;;;;;;5000577;28;20061;-59
2023/06/04 12:05:10;;;;;;;6.18;1.98;;;;;;;;;;4999954;28;20091;-59
2023/06/04 12:07:36;;;;;;;5.07;1.73;;;;;;;;;;5000704;28;20068;-59
2023/06/04 12:10:07;;;;;;;5.90;2.10;;;;;;;;;;5000988;28;20033;-59
2023/06/04 12:12:34;;;;;;;5.75;2.05;;;;;;;;;;4999761;28;20047;-59
2023/06/04 12:15:01;;;;;;;5.45;2.20;;;;;;;;;;5000806;28;20794;-59
2023/06/04 12:17:27;;;;;;;5.47;1.98;;;;;;;;;;5000681;28;20108;-59
2023/06/04 12:19:53;;;;;;;5.47;1.73;;;;;;;;;;5000877;28;20026;-59
2023/06/04 12:22:19;;;;;;;6.20;2.00;;;;;;;;;;5000646;28;20056;-59
2023/06/04 12:24:53;;;;;;;5.15;1.80;;;;;;;;;;5000554;28;20176;-59
2023/06/04 12:27:19;;;;;;;;;;;;;;;;;;4999988;28;20144;-59
2023/06/04 12:29:55;;;;;;;3.72;1.48;;;;;;;;;;4998260;28;19917;-59
2023/06/04 12:32:21;;;;;;;6.70;1.52;;;;;;;;;;4998318;28;20824;-59
2023/06/04 12:34:48;;;;;;;5.30;1.60;;;;;;;;;;4998701;28;20156;-59
2023/06/04 12:37:14;;;;;;;5.72;1.70;;;;;;;;;;4998521;28;20120;-59
2023/06/04 12:39:40;;;;;;;6.40;1.40;;;;;;;;;;4998820;28;20025;-59
2023/06/04 12:42:10;;;;;;;3.72;1.30;;;;;;;;;;4996555;28;20780;-59
2023/06/04 12:44:40;;;;;;;6.18;1.40;;;;;;;;;;4998664;28;20108;-59
2023/06/04 12:47:06;;;;;;;6.13;1.40;;;;;;;;;;4998413;28;20121;-59
2023/06/04 12:49:32;;;;;;;7.15;1.90;;;;;;;;;;4998437;28;20107;-59
2023/06/04 12:51:58;;;;;;;3.40;1.25;;;;;;;;;;4998996;28;20034;-59
2023/06/04 12:54:26;;;;;;;3.88;1.40;;;;;;;;;;4997765;28;20508;-59
2023/06/04 12:56:53;;;;;;;5.13;2.53;;;;;;;;;;4998229;28;20920;-59
2023/06/04 12:59:19;;;;;;;4.85;1.58;;;;;;;;;;4997905;28;21587;-59
2023/06/04 13:01:45;;;;;;;4.35;1.58;;;;;;;;;;4996568;28;20065;-59
2023/06/04 13:04:11;;;;;;;6.40;1.67;;;;;;;;;;4997333;28;20052;-59
2023/06/04 13:06:37;;;;;;;3.13;1.25;;;;;;;;;;4996973;28;20073;-59
2023/06/04 13:09:08;;;;;;;5.05;1.52;;;;;;;;;;4997371;28;20041;-59
2023/06/04 13:11:35;;;;;;;6.20;1.33;;;;;;;;;;4997576;28;20034;-59
2023/06/04 13:14:01;;;;;;;3.92;1.40;;;;;;;;;;4998206;28;20034;-59
2023/06/04 13:16:27;;;;;;;4.85;1.45;;;;;;;;;;4998910;28;20598;-59
2023/06/04 13:18:53;;;;;;;5.13;1.50;;;;;;;;;;4997345;28;20100;-59
2023/06/04 13:21:20;;;;;;;4.57;1.42;;;;;;;;;;4997521;28;20021;-59
2023/06/04 13:23:46;;;;;;;5.68;1.70;;;;;;;;;;4998497;28;20060;-59
2023/06/04 13:26:12;;;;;;;5.90;1.67;;;;;;;;;;4998659;28;21087;-59
2023/06/04 13:28:38;;;;;;;3.80;1.30;;;;;;;;;;4998501;28;20847;-60
2023/06/04 13:31:04;;;;;;;8.32;1.40;;;;;;;;;;4998734;28;20034;-59
2023/06/04 13:33:30;;;;;;;3.95;1.45;;;;;;;;;;4998462;28;20037;-59
2023/06/04 13:35:56;;;;;;;3.97;1.58;;;;;;;;;;4997050;28;20120;-59
2023/06/04 13:38:22;;;;;;;5.05;1.67;;;;;;;;;;4998182;28;20420;-59
2023/06/04 13:40:48;;;;;;;5.22;1.58;;;;;;;;;;4998380;28;20044;-59
2023/06/04 13:43:15;;;;;;;5.00;1.58;;;;;;;;;;4998172;28;20037;-59
2023/06/04 13:45:44;;;;;;;4.43;1.80;;;;;;;;;;4997152;28;20140;-59
2023/06/04 13:48:10;;;;;;;4.80;1.45;;;;;;;;;;4995915;28;20038;-59
2023/06/04 13:50:36;;;;;;;6.68;2.00;;;;;;;;;;4996398;28;20051;-59
2023/06/04 13:53:02;;;;;;;6.03;1.63;;;;;;;;;;4997187;28;20040;-60
2023/06/04 13:55:28;;;;;;;4.22;1.40;;;;;;;;;;4997179;28;20058;-59
2023/06/04 13:57:54;;;;;;;5.43;1.77;;;;;;;;;;4996100;28;20042;-60
2023/06/04 14:00:20;;;;;;;6.38;1.73;;;;;;;;;;4997651;28;20100;-59
2023/06/04 14:02:47;;;;;;;4.70;1.83;;;;;;;;;;4997175;28;20052;-59
2023/06/04 14:05:13;;;;;;;6.18;2.03;;;;;;;;;;4997663;28;20586;-59
2023/06/04 14:07:42;;;;;;;4.85;1.80;;;;;;;;;;4997948;28;20076;-59
2023/06/04 14:10:08;;;;;;;7.22;1.88;;;;;;;;;;4998138;28;20204;-59
2023/06/04 14:12:35;;;;;;;3.33;1.38;;;;;;;;;;4997899;28;20408;-59
2023/06/04 14:15:01;;;;;;;3.42;1.50;;;;;;;;;;4997512;28;20037;-59
2023/06/04 14:17:27;;;;;;;6.82;1.55;;;;;;;;;;4995543;28;20029;-59
2023/06/04 14:19:53;;;;;;;7.75;1.58;;;;;;;;;;4995749;28;20071;-59
2023/06/04 14:22:19;;;;;;;5.85;1.90;;;;;;;;;;4997186;28;20040;-59
2023/06/04 14:24:45;;;;;;;9.38;1.90;;;;;;;;;;4997702;28;20967;-59
2023/06/04 14:27:12;;;;;;;4.75;2.10;;;;;;;;;;4997226;28;20347;-59
2023/06/04 14:29:38;;;;;;;5.05;1.55;;;;;;;;;;4997867;28;20412;-59
2023/06/04 14:32:05;;;;;;;4.90;1.58;;;;;;;;;;4997551;28;20028;-59
2023/06/04 14:34:32;;;;;;;3.35;1.35;;;;;;;;;;4994779;28;20041;-59
2023/06/04 14:36:59;;;;;;;4.28;1.38;;;;;;;;;;4996212;28;20026;-59
2023/06/04 14:39:26;;;;;;;3.38;1.13;;;;;;;;;;4996906;28;20619;-59
2023/06/04 14:41:52;;;;;;;6.43;1.70;;;;;;;;;;4997325;28;20026;-59